createdAt,value
2022-12-04T00:04:41.324Z,11.65
2022-12-04T00:07:11.694Z,10.25
2022-12-04T00:09:42.890Z,10.88
2022-12-04T00:12:13.743Z,11.50
2022-12-04T00:15:16.405Z,10.68
2022-12-04T00:17:34.601Z,11.63
2022-12-04T00:20:04.726Z,10.57
2022-12-04T00:22:35.622Z,10.35
2022-12-04T00:25:05.848Z,11.00
2022-12-04T00:27:35.896Z,11.00
2022-12-04T00:30:06.550Z,11.38
2022-12-04T00:32:36.584Z,9.93
2022-12-04T00:35:06.703Z,11.07
2022-12-04T00:37:36.816Z,11.27
2022-12-04T00:40:07.179Z,10.40
2022-12-04T00:42:37.456Z,10.50
2022-12-04T00:45:07.969Z,10.77
2022-12-04T00:47:38.300Z,11.30
2022-12-04T00:50:09.123Z,10.88
2022-12-04T00:52:39.255Z,10.70
2022-12-04T00:55:09.894Z,10.55
2022-12-04T00:57:40.266Z,10.68
2022-12-04T01:00:10.986Z,10.10
2022-12-04T01:02:41.562Z,9.40
2022-12-04T01:05:11.932Z,9.40
2022-12-04T01:10:27.845Z,9.38
2022-12-04T01:12:58.227Z,9.65
2022-12-04T01:15:46.477Z,8.52
2022-12-04T01:18:17.688Z,8.65
2022-12-04T01:20:53.819Z,9.35
2022-12-04T01:23:24.056Z,9.00
2022-12-04T01:26:00.917Z,8.43
2022-12-04T01:28:31.386Z,8.52
2022-12-04T01:31:11.486Z,9.05
2022-12-04T01:36:30.874Z,8.13
2022-12-04T01:39:19.874Z,7.85
2022-12-04T01:41:50.090Z,7.90
2022-12-04T01:44:25.988Z,7.95
2022-12-04T01:46:58.871Z,7.28
2022-12-04T01:49:53.151Z,7.35
2022-12-04T01:52:27.362Z,6.75
2022-12-04T01:55:03.279Z,6.50
2022-12-04T01:57:35.199Z,6.95
2022-12-04T02:00:11.024Z,7.25
2022-12-04T02:02:47.681Z,7.18
2022-12-04T02:05:21.622Z,6.35
2022-12-04T02:07:55.203Z,6.47
2022-12-04T02:10:33.526Z,6.65
2022-12-04T02:13:19.346Z,6.13
2022-12-04T02:16:09.606Z,6.63
2022-12-04T02:19:22.599Z,5.88
2022-12-04T02:21:57.044Z,6.38
2022-12-04T02:24:50.201Z,6.40
2022-12-04T02:27:49.703Z,6.57
2022-12-04T02:30:19.983Z,6.82
2022-12-04T02:33:26.202Z,6.80
2022-12-04T02:36:22.437Z,5.90
2022-12-04T02:39:01.569Z,5.68
2022-12-04T02:41:59.796Z,5.57
2022-12-04T02:45:11.675Z,6.32
2022-12-04T02:47:45.199Z,5.65
2022-12-04T02:50:18.641Z,5.53
2022-12-04T02:52:53.616Z,5.63
2022-12-04T02:58:55.586Z,5.28
2022-12-04T03:01:39.100Z,5.55
2022-12-04T03:04:23.164Z,5.25
2022-12-04T03:07:04.187Z,5.50
2022-12-04T03:10:00.398Z,5.70
2022-12-04T03:15:43.699Z,5.22
2022-12-04T03:18:39.291Z,5.40
2022-12-04T03:21:15.413Z,5.93
2022-12-04T03:24:15.727Z,6.30
2022-12-04T03:27:01.625Z,5.68
2022-12-04T03:29:45.355Z,5.88
2022-12-04T03:32:22.968Z,5.55
2022-12-04T03:35:15.982Z,5.20
2022-12-04T03:38:02.116Z,5.78
2022-12-04T03:40:45.093Z,5.18
2022-12-04T03:43:32.229Z,5.60
2022-12-04T03:46:13.348Z,5.03
2022-12-04T03:48:58.910Z,4.82
2022-12-04T03:51:44.148Z,5.15
2022-12-04T03:54:20.143Z,5.20
2022-12-04T03:57:02.705Z,5.10
2022-12-04T04:00:01.492Z,5.40
2022-12-04T04:03:00.904Z,5.00
2022-12-04T04:08:29.638Z,5.15
2022-12-04T04:11:26.475Z,4.88
2022-12-04T04:14:43.315Z,5.20
2022-12-04T04:17:38.921Z,4.90
2022-12-04T04:20:33.754Z,4.95
2022-12-04T04:23:36.387Z,5.03
2022-12-04T04:26:07.896Z,5.00
2022-12-04T04:28:41.292Z,4.75
2022-12-04T04:31:15.697Z,4.80
2022-12-04T04:33:54.593Z,4.82
2022-12-04T04:36:36.643Z,4.80
2022-12-04T04:39:22.569Z,4.82
2022-12-04T04:41:58.457Z,4.43
2022-12-04T04:44:41.845Z,5.30
2022-12-04T04:47:22.767Z,4.60
2022-12-04T04:49:55.095Z,5.10
2022-12-04T04:52:26.859Z,4.55
2022-12-04T04:54:57.875Z,4.90
2022-12-04T04:57:33.266Z,4.95
2022-12-04T05:00:03.671Z,4.75
2022-12-04T05:02:35.991Z,5.20
2022-12-04T05:07:52.409Z,4.43
2022-12-04T05:10:22.785Z,4.88
2022-12-04T05:12:53.706Z,4.47
2022-12-04T05:15:23.832Z,4.57
2022-12-04T05:17:53.763Z,4.53
2022-12-04T05:20:23.704Z,4.15
2022-12-04T05:22:53.702Z,4.40
2022-12-04T05:25:25.179Z,4.50
2022-12-04T05:27:55.411Z,4.05
2022-12-04T05:30:25.394Z,4.30
2022-12-04T05:32:55.621Z,4.35
2022-12-04T05:35:26.461Z,4.95
2022-12-04T05:37:56.626Z,3.85
2022-12-04T05:40:26.869Z,3.70
2022-12-04T05:42:56.873Z,4.25
2022-12-04T05:45:26.816Z,4.03
2022-12-04T05:47:56.800Z,4.15
2022-12-04T05:50:26.760Z,4.32
2022-12-04T05:52:56.906Z,4.80
2022-12-04T05:55:27.113Z,3.78
2022-12-04T05:57:57.015Z,3.92
2022-12-04T06:00:27.288Z,3.50
2022-12-04T06:02:57.254Z,3.53
2022-12-04T06:05:27.437Z,3.97
2022-12-04T06:07:57.923Z,3.72
2022-12-04T06:10:28.115Z,3.93
2022-12-04T06:12:59.863Z,3.58
2022-12-04T06:15:30.215Z,3.30
2022-12-04T06:18:00.374Z,4.47
2022-12-04T06:20:30.412Z,3.50
2022-12-04T06:23:00.676Z,3.38
2022-12-04T06:25:49.167Z,3.60
2022-12-04T06:28:39.313Z,3.50
2022-12-04T06:31:13.306Z,3.58
2022-12-04T06:34:02.233Z,3.95
2022-12-04T06:36:50.605Z,3.78
2022-12-04T06:39:38.895Z,3.70
2022-12-04T06:42:10.297Z,3.83
2022-12-04T06:44:40.458Z,3.80
2022-12-04T06:47:11.517Z,3.50
2022-12-04T06:49:41.930Z,3.90
2022-12-04T06:52:30.354Z,3.55
2022-12-04T06:55:01.221Z,3.70
2022-12-04T06:57:31.406Z,3.70
2022-12-04T07:00:01.577Z,3.80
2022-12-04T07:02:31.706Z,3.60
2022-12-04T07:05:01.775Z,3.95
2022-12-04T07:07:31.801Z,3.60
2022-12-04T07:10:01.999Z,3.80
2022-12-04T07:12:32.168Z,3.63
2022-12-04T07:15:02.279Z,3.28
2022-12-04T07:17:32.193Z,3.78
2022-12-04T07:20:02.875Z,4.10
2022-12-04T07:22:32.987Z,3.75
2022-12-04T07:25:03.007Z,3.65
2022-12-04T07:27:34.210Z,3.58
2022-12-04T07:32:34.076Z,3.50
2022-12-04T07:35:04.435Z,3.95
2022-12-04T07:37:34.969Z,3.63
2022-12-04T07:40:06.147Z,3.30
2022-12-04T07:42:36.342Z,3.78
2022-12-04T07:45:06.586Z,4.00
2022-12-04T07:47:38.624Z,4.03
2022-12-04T07:50:09.553Z,4.93
2022-12-04T07:52:41.203Z,5.13
2022-12-04T07:55:12.352Z,5.43
2022-12-04T07:57:42.424Z,6.05
2022-12-04T08:00:13.783Z,5.88
2022-12-04T08:03:01.860Z,5.75
2022-12-04T08:05:32.079Z,5.82
2022-12-04T08:08:02.885Z,5.40
2022-12-04T08:10:33.342Z,5.78
2022-12-04T08:13:03.714Z,6.00
2022-12-04T08:15:36.382Z,5.53
2022-12-04T08:18:06.481Z,5.95
2022-12-04T08:20:36.471Z,5.20
2022-12-04T08:23:06.449Z,5.32
2022-12-04T08:25:36.708Z,5.72
2022-12-04T08:28:06.911Z,4.78
2022-12-04T08:30:38.020Z,5.28
2022-12-04T08:35:38.335Z,5.63
2022-12-04T08:38:08.457Z,5.07
2022-12-04T08:40:38.412Z,5.25
2022-12-04T08:43:08.596Z,4.88
2022-12-04T08:46:05.338Z,5.00
2022-12-04T08:48:36.409Z,4.82
2022-12-04T08:51:07.554Z,5.20
2022-12-04T08:53:39.642Z,4.30
2022-12-04T08:56:10.638Z,4.65
2022-12-04T08:58:43.152Z,4.60
2022-12-04T09:01:16.478Z,4.63
2022-12-04T09:03:47.162Z,4.50
2022-12-04T09:06:18.499Z,4.10
2022-12-04T09:11:23.171Z,4.10
2022-12-04T09:13:54.707Z,4.20
2022-12-04T09:16:27.070Z,4.55
2022-12-04T09:18:58.068Z,4.13
2022-12-04T09:21:28.969Z,4.28
2022-12-04T09:23:59.161Z,4.03
2022-12-04T09:26:34.950Z,4.50
2022-12-04T09:29:07.098Z,4.30
2022-12-04T09:31:37.418Z,4.35
2022-12-04T09:34:07.718Z,4.22
2022-12-04T09:36:37.852Z,4.35
2022-12-04T09:39:08.063Z,3.80
2022-12-04T09:42:06.262Z,4.43
2022-12-04T09:44:46.196Z,4.20
2022-12-04T09:47:28.073Z,4.35
2022-12-04T09:50:27.697Z,4.13
2022-12-04T09:53:25.109Z,4.15
2022-12-04T09:56:17.615Z,4.00
2022-12-04T09:58:57.384Z,4.60
2022-12-04T10:01:59.061Z,4.20
2022-12-04T10:04:29.283Z,4.60
2022-12-04T10:10:15.122Z,4.50
2022-12-04T10:12:46.294Z,4.40
2022-12-04T10:15:34.685Z,3.95
2022-12-04T10:18:13.990Z,4.53
2022-12-04T10:21:08.417Z,4.68
2022-12-04T10:24:03.174Z,4.53
2022-12-04T10:26:41.315Z,4.47
2022-12-04T10:29:24.913Z,4.65
2022-12-04T10:31:59.540Z,5.00
2022-12-04T10:34:32.279Z,4.65
2022-12-04T10:37:08.973Z,4.95
2022-12-04T10:39:53.627Z,4.72
2022-12-04T10:42:49.697Z,5.05
2022-12-04T10:45:19.996Z,5.20
2022-12-04T10:47:52.164Z,4.80
2022-12-04T10:50:26.920Z,5.88
2022-12-04T10:52:57.079Z,6.00
2022-12-04T10:55:35.653Z,4.88
2022-12-04T10:58:05.927Z,5.32
2022-12-04T11:00:38.085Z,5.80
2022-12-04T11:03:30.748Z,5.68
2022-12-04T11:06:13.001Z,5.45
2022-12-04T11:08:51.730Z,5.35
2022-12-04T11:11:52.271Z,6.07
2022-12-04T11:14:27.011Z,6.10
2022-12-04T11:17:08.259Z,5.82
2022-12-04T11:19:38.682Z,5.80
2022-12-04T11:22:20.932Z,6.03
2022-12-04T11:24:59.610Z,6.32
2022-12-04T11:27:36.440Z,6.07
2022-12-04T11:30:18.797Z,6.40
2022-12-04T11:32:50.153Z,6.57
2022-12-04T11:35:40.080Z,6.47
2022-12-04T11:38:17.139Z,7.13
2022-12-04T11:40:54.340Z,7.55
2022-12-04T11:43:28.507Z,7.15
2022-12-04T11:46:26.094Z,6.80
2022-12-04T11:48:56.907Z,7.22
2022-12-04T11:52:08.817Z,6.95
2022-12-04T11:57:32.424Z,7.80
2022-12-04T12:00:13.825Z,7.40
2022-12-04T12:05:35.364Z,7.88
2022-12-04T12:08:33.887Z,7.43
2022-12-04T12:11:41.478Z,8.25
2022-12-04T12:14:23.779Z,7.28
2022-12-04T12:20:22.871Z,8.35
2022-12-04T12:22:55.908Z,7.85
2022-12-04T12:25:51.881Z,8.48
2022-12-04T12:28:47.271Z,8.15
2022-12-04T12:31:56.712Z,11.50
2022-12-04T12:34:35.398Z,10.95
2022-12-04T12:40:18.837Z,11.10
2022-12-04T12:43:24.914Z,13.02
2022-12-04T12:46:02.596Z,14.68
2022-12-04T12:48:56.552Z,15.82
2022-12-04T12:51:42.327Z,16.90
2022-12-04T12:55:09.577Z,14.02
2022-12-04T12:57:43.683Z,13.75
2022-12-04T13:00:24.610Z,12.50
2022-12-04T13:03:24.383Z,13.85
2022-12-04T13:05:59.220Z,15.27
2022-12-04T13:08:44.998Z,16.73
2022-12-04T13:11:24.428Z,15.30
2022-12-04T13:14:06.277Z,16.05
2022-12-04T13:16:52.232Z,15.18
2022-12-04T13:19:45.488Z,14.23
2022-12-04T13:22:29.728Z,14.60
2022-12-04T13:24:59.876Z,13.75
2022-12-04T13:27:49.022Z,15.20
2022-12-04T13:30:22.208Z,15.35
2022-12-04T13:33:21.296Z,18.17
2022-12-04T13:35:54.198Z,17.52
2022-12-04T13:38:27.327Z,17.55
2022-12-04T13:41:12.446Z,16.50
2022-12-04T13:43:45.958Z,14.98
2022-12-04T13:46:37.186Z,13.68
2022-12-04T13:49:29.324Z,14.52
2022-12-04T13:52:01.469Z,12.90
2022-12-04T13:54:36.906Z,14.88
2022-12-04T13:57:24.424Z,13.27
2022-12-04T14:00:07.721Z,14.40
2022-12-04T14:02:54.469Z,13.88
2022-12-04T14:05:44.006Z,14.13
2022-12-04T14:08:31.267Z,13.40
2022-12-04T14:11:14.616Z,13.35
2022-12-04T14:13:46.522Z,13.77
2022-12-04T14:16:44.821Z,13.60
2022-12-04T14:19:30.229Z,14.48
2022-12-04T14:22:01.031Z,14.32
2022-12-04T14:24:37.345Z,14.77
2022-12-04T14:27:34.433Z,16.55
2022-12-04T14:30:05.997Z,16.83
2022-12-04T14:32:37.927Z,18.13
2022-12-04T14:35:09.316Z,16.30
2022-12-04T14:37:43.361Z,18.80
2022-12-04T14:40:27.502Z,17.52
2022-12-04T14:42:58.501Z,17.42
2022-12-04T14:45:41.425Z,18.20
2022-12-04T14:48:32.412Z,19.13
2022-12-04T14:51:34.041Z,17.70
2022-12-04T14:56:50.093Z,18.77
2022-12-04T14:59:23.877Z,18.70
2022-12-04T15:01:58.119Z,16.83
2022-12-04T15:04:33.307Z,16.92
2022-12-04T15:07:04.991Z,15.65
2022-12-04T15:09:53.775Z,16.83
2022-12-04T15:12:36.174Z,16.80
2022-12-04T15:15:27.776Z,16.55
2022-12-04T15:20:46.053Z,15.77
2022-12-04T15:23:20.324Z,15.85
2022-12-04T15:25:56.744Z,15.65
2022-12-04T15:28:47.121Z,15.23
2022-12-04T15:31:55.855Z,15.30
2022-12-04T15:34:43.673Z,14.70
2022-12-04T15:37:31.983Z,14.70
2022-12-04T15:40:03.335Z,13.95
2022-12-04T15:42:33.923Z,13.55
2022-12-04T15:45:14.951Z,12.87
2022-12-04T15:47:45.229Z,14.10
2022-12-04T15:50:18.177Z,13.35
2022-12-04T15:53:01.926Z,13.30
2022-12-04T15:55:41.335Z,13.48
2022-12-04T15:58:21.121Z,13.50
2022-12-04T16:00:58.035Z,13.02
2022-12-04T16:03:35.522Z,12.57
2022-12-04T16:06:25.330Z,12.20
2022-12-04T16:08:58.706Z,13.90
2022-12-04T16:11:40.631Z,13.88
2022-12-04T16:16:25.344Z,13.32
2022-12-04T16:18:56.002Z,13.88
2022-12-04T16:21:33.166Z,12.00
2022-12-04T16:24:09.490Z,13.98
2022-12-04T16:26:40.016Z,12.77
2022-12-04T16:29:10.243Z,13.50
2022-12-04T16:31:41.077Z,14.18
2022-12-04T16:37:00.340Z,14.82
2022-12-04T16:39:30.700Z,14.70
2022-12-04T16:42:01.189Z,14.88
2022-12-04T16:44:50.416Z,14.35
2022-12-04T16:47:38.657Z,15.15
2022-12-04T16:50:09.820Z,14.40
2022-12-04T16:52:40.094Z,14.57
2022-12-04T16:55:40.303Z,14.18
2022-12-04T16:58:29.423Z,14.73
2022-12-04T17:03:32.157Z,14.15
2022-12-04T17:06:03.593Z,14.20
2022-12-04T17:11:04.458Z,13.52
2022-12-04T17:13:34.653Z,13.43
2022-12-04T17:16:04.919Z,13.98
2022-12-04T17:18:37.178Z,14.80
2022-12-04T17:23:58.754Z,14.70
2022-12-04T17:26:30.052Z,14.55
2022-12-04T17:32:03.897Z,14.68
2022-12-04T17:34:55.107Z,16.10
2022-12-04T17:37:25.440Z,15.05
2022-12-04T17:39:55.942Z,15.23
2022-12-04T17:42:26.137Z,14.10
2022-12-04T17:44:56.516Z,14.23
2022-12-04T17:47:26.899Z,13.75
2022-12-04T17:50:14.977Z,13.02
2022-12-04T17:53:03.341Z,13.82
2022-12-04T17:55:33.492Z,12.52
2022-12-04T17:58:04.616Z,12.90
2022-12-04T18:03:06.554Z,11.93
2022-12-04T18:05:36.796Z,11.98
2022-12-04T18:08:07.027Z,11.82
2022-12-04T18:10:37.625Z,12.85
2022-12-04T18:13:07.714Z,12.27
2022-12-04T18:15:37.819Z,11.50
2022-12-04T18:18:08.445Z,11.25
2022-12-04T18:20:38.830Z,10.90
2022-12-04T18:23:09.321Z,11.55
2022-12-04T18:25:39.468Z,12.07
2022-12-04T18:28:09.456Z,11.73
2022-12-04T18:30:39.606Z,12.27
2022-12-04T18:33:14.819Z,11.27
2022-12-04T18:35:59.018Z,12.30
2022-12-04T18:38:32.818Z,11.13
2022-12-04T18:41:11.754Z,11.30
2022-12-04T18:43:45.220Z,11.70
2022-12-04T18:46:17.585Z,11.25
2022-12-04T18:48:49.213Z,11.98
2022-12-04T18:51:29.003Z,11.02
2022-12-04T18:54:02.446Z,10.27
2022-12-04T18:56:33.116Z,11.30
2022-12-04T18:59:08.973Z,11.02
2022-12-04T19:01:39.293Z,10.23
2022-12-04T19:04:11.862Z,10.67
2022-12-04T19:06:48.144Z,10.00
2022-12-04T19:09:35.729Z,11.18
2022-12-04T19:12:14.775Z,10.45
2022-12-04T19:14:45.035Z,10.50
2022-12-04T19:17:17.485Z,10.18
2022-12-04T19:19:47.594Z,10.02
2022-12-04T19:22:17.876Z,9.77
2022-12-04T19:24:49.072Z,10.35
2022-12-04T19:27:37.324Z,10.57
2022-12-04T19:30:08.889Z,10.93
2022-12-04T19:32:39.229Z,10.90
2022-12-04T19:35:09.664Z,10.63
2022-12-04T19:37:41.943Z,10.90
2022-12-04T19:43:02.968Z,10.07
2022-12-04T19:45:34.380Z,10.77
2022-12-04T19:48:22.746Z,10.15
2022-12-04T19:51:17.235Z,9.95
2022-12-04T19:53:48.345Z,11.05
2022-12-04T19:56:26.274Z,10.88
2022-12-04T19:58:58.870Z,11.02
2022-12-04T20:01:31.937Z,10.70
2022-12-04T20:04:07.373Z,10.95
2022-12-04T20:06:55.748Z,10.38
2022-12-04T20:09:48.793Z,10.27
2022-12-04T20:12:40.318Z,10.65
2022-12-04T20:15:10.810Z,10.95
2022-12-04T20:17:41.009Z,10.40
2022-12-04T20:20:11.605Z,10.05
2022-12-04T20:22:41.760Z,11.17
2022-12-04T20:25:11.980Z,10.13
2022-12-04T20:27:41.993Z,10.15
2022-12-04T20:30:12.399Z,10.63
2022-12-04T20:32:43.017Z,11.40
2022-12-04T20:35:13.492Z,10.53
2022-12-04T20:37:43.740Z,11.38
2022-12-04T20:40:14.470Z,10.07
2022-12-04T20:43:02.611Z,11.10
2022-12-04T20:45:34.793Z,11.50
2022-12-04T20:48:05.127Z,11.77
2022-12-04T20:50:35.387Z,9.93
2022-12-04T20:53:07.917Z,10.38
2022-12-04T20:55:38.006Z,10.82
2022-12-04T20:58:08.253Z,11.25
2022-12-04T21:00:38.411Z,10.52
2022-12-04T21:03:08.538Z,11.40
2022-12-04T21:05:38.798Z,11.60
2022-12-04T21:08:10.607Z,10.85
2022-12-04T21:10:40.785Z,10.70
2022-12-04T21:13:29.730Z,11.18
2022-12-04T21:16:05.606Z,11.15
2022-12-04T21:18:53.810Z,11.05
2022-12-04T21:21:24.097Z,11.27
2022-12-04T21:23:54.967Z,10.77
2022-12-04T21:26:25.134Z,10.93
2022-12-04T21:28:55.241Z,10.30
2022-12-04T21:31:25.596Z,10.88
2022-12-04T21:33:56.066Z,10.87
2022-12-04T21:36:44.965Z,11.13
2022-12-04T21:39:16.616Z,9.98
2022-12-04T21:42:06.441Z,9.90
2022-12-04T21:44:36.698Z,10.32
2022-12-04T21:47:06.740Z,10.43
2022-12-04T21:49:55.292Z,10.50
2022-12-04T21:52:25.778Z,10.53
2022-12-04T21:54:57.058Z,10.98
2022-12-04T21:59:57.469Z,9.55
2022-12-04T22:02:46.009Z,10.07
2022-12-04T22:05:16.173Z,10.02
2022-12-04T22:07:46.174Z,10.05
2022-12-04T22:10:16.979Z,9.60
2022-12-04T22:12:50.340Z,9.48
2022-12-04T22:15:21.117Z,8.68
2022-12-04T22:17:52.269Z,10.02
2022-12-04T22:20:22.432Z,9.73
2022-12-04T22:22:52.469Z,9.45
2022-12-04T22:25:22.472Z,9.23
2022-12-04T22:27:52.431Z,9.52
2022-12-04T22:30:24.497Z,8.57
2022-12-04T22:33:13.018Z,9.00
2022-12-04T22:36:06.577Z,9.00
2022-12-04T22:38:52.521Z,8.50
2022-12-04T22:41:28.520Z,8.55
2022-12-04T22:43:58.923Z,8.80
2022-12-04T22:46:29.275Z,9.15
2022-12-04T22:49:02.835Z,8.73
2022-12-04T22:54:20.931Z,9.20
2022-12-04T22:56:51.201Z,8.45
2022-12-04T22:59:21.282Z,8.43
2022-12-04T23:01:51.478Z,8.13
2022-12-04T23:04:21.604Z,8.40
2022-12-04T23:06:51.658Z,8.30
2022-12-04T23:09:21.976Z,8.50
2022-12-04T23:11:56.259Z,8.07
2022-12-04T23:14:27.174Z,8.52
2022-12-04T23:16:58.626Z,7.57
2022-12-04T23:19:28.866Z,7.97
2022-12-04T23:21:59.104Z,8.38
2022-12-04T23:24:29.346Z,8.10
2022-12-04T23:26:59.512Z,8.07
2022-12-04T23:29:52.116Z,7.85
2022-12-04T23:32:19.795Z,7.65
2022-12-04T23:34:49.796Z,7.68
2022-12-04T23:37:19.773Z,7.65
2022-12-04T23:39:49.827Z,8.13
2022-12-04T23:42:19.804Z,8.10
2022-12-04T23:44:49.798Z,9.10
2022-12-04T23:47:21.151Z,8.43
2022-12-04T23:49:51.466Z,9.43
2022-12-04T23:52:21.803Z,9.10
2022-12-04T23:54:52.048Z,9.17
2022-12-04T23:57:22.142Z,9.32
2022-12-04T23:59:53.198Z,9.40
